»·PEaware :: N850VJ KSFO-KOVE

N850VJ :: KSFO-KOVE

FLIGHT INFORMATION

Flight Status: Arrived
Operator: Privately registered:
United States
More flights under this callsign
Pilot: Anonymous 13363 (13363)
Aircraft: Unknown
(TBM9)
More flights by this aircraft type
Origin: KSFO San Francisco Intl
United States
Destination: KOVE Oroville Mun
United States
More flights between these airports :: More routes between these airports
Route: AFIVA1 DEDHD ILA
File this flight plan on PilotEdge
Remarks:
Altitude:
(Current/Filed)
21,000ft
Speed:
(Current/Filed)
470kts
Departed: 09-Jan-18 09:32 PM
Arrived: 09-Jan-18 10:08 PM
Distance/Time
Traveled:
118nm/0:36
Distance/Time
To Go:
Arrived

Flight Plot

Page will automatically refresh every two minutes.

Flight plan parsing failed; only flown route is shown


Map Options




Map Legend


Flown Route
Filed Route
Departure Airport
Arrival Airport
Navaid (VOR, NDB)
Fix

Horizontal Profiles

Position Reports

Time Latitude Longitude Heading Altitude Ground
Speed
09-Jan-18 21:19 37.628751 -122.382592 140 15ft 0kts
09-Jan-18 21:20 37.628751 -122.382592 140 15ft 0kts
09-Jan-18 21:21 37.628751 -122.382592 140 15ft 0kts
09-Jan-18 21:22 37.628751 -122.382592 140 15ft 0kts
09-Jan-18 21:23 37.628751 -122.382592 140 15ft 0kts
09-Jan-18 21:24 37.628751 -122.382592 140 15ft 0kts
09-Jan-18 21:25 37.628751 -122.382592 140 15ft 0kts
09-Jan-18 21:26 37.628751 -122.382592 140 15ft 0kts
09-Jan-18 21:27 37.628751 -122.382592 140 15ft 0kts
09-Jan-18 21:28 37.628751 -122.382592 140 15ft 0kts
09-Jan-18 21:29 37.628751 -122.382592 140 15ft 0kts
09-Jan-18 21:30 37.628751 -122.382592 140 15ft 0kts
09-Jan-18 21:31 37.628727 -122.382567 142 15ft 0kts
09-Jan-18 21:32 37.627783 -122.382085 208 15ft 7kts
09-Jan-18 21:33 37.625849 -122.382800 117 15ft 10kts
09-Jan-18 21:34 37.624157 -122.378678 119 15ft 14kts
09-Jan-18 21:35 37.622467 -122.375342 213 15ft 4kts
09-Jan-18 21:36 37.622422 -122.375390 231 15ft 0kts
09-Jan-18 21:37 37.621830 -122.376148 228 15ft 12kts
09-Jan-18 21:38 37.629332 -122.394018 302 490ft 120kts
09-Jan-18 21:39 37.663856 -122.395439 2 2777ft 128kts
09-Jan-18 21:40 37.698978 -122.388967 1 4854ft 135kts
09-Jan-18 21:41 37.735272 -122.382211 2 7189ft 136kts
09-Jan-18 21:42 37.772747 -122.374867 8 9653ft 141kts
09-Jan-18 21:43 37.809696 -122.360185 7 12096ft 143kts
09-Jan-18 21:44 37.847000 -122.345323 6 14424ft 142kts
09-Jan-18 21:45 37.884164 -122.330524 5 16645ft 142kts
09-Jan-18 21:46 37.921082 -122.315798 5 18811ft 142kts
09-Jan-18 21:47 37.957888 -122.301020 3 20982ft 144kts
09-Jan-18 21:48 38.008219 -122.281332 7 20986ft 224kts
09-Jan-18 21:49 38.071017 -122.253883 13 20965ft 251kts
09-Jan-18 21:50 38.134965 -122.219821 13 20971ft 253kts
09-Jan-18 21:51 38.198195 -122.186083 13 20946ft 255kts
09-Jan-18 21:52 38.263206 -122.151314 13 20915ft 255kts
09-Jan-18 21:53 38.328718 -122.116238 12 20914ft 254kts
09-Jan-18 21:54 38.395321 -122.106533 358 20913ft 244kts
09-Jan-18 21:55 38.462298 -122.098629 357 20939ft 243kts
09-Jan-18 21:57 38.596058 -122.082965 358 20136ft 246kts
09-Jan-18 21:58 38.664287 -122.075016 358 19132ft 248kts
09-Jan-18 21:59 38.733916 -122.066907 359 18007ft 256kts
09-Jan-18 22:00 38.804952 -122.058574 359 16813ft 261kts
09-Jan-18 22:01 38.877578 -122.050035 359 15604ft 264kts
09-Jan-18 22:02 38.949664 -122.041542 0 14418ft 268kts
09-Jan-18 22:03 39.019598 -122.021013 333 13182ft 260kts
09-Jan-18 22:04 39.086774 -121.983501 31 11980ft 285kts
09-Jan-18 22:05 39.148729 -121.923346 31 10658ft 282kts
09-Jan-18 22:06 39.208111 -121.868038 31 8655ft 254kts
09-Jan-18 22:07 39.266062 -121.815875 34 6644ft 253kts
09-Jan-18 22:08 39.318890 -121.764164 62 4363ft 232kts
09-Jan-18 22:09 39.349147 -121.704580 72 3426ft 184kts
09-Jan-18 22:10 39.390055 -121.699324 341 2283ft 176kts
09-Jan-18 22:11 39.429824 -121.672134 41 1347ft 148kts
09-Jan-18 22:12 39.460912 -121.647738 33 611ft 103kts
09-Jan-18 22:13 39.481413 -121.629664 33 177ft 74kts
09-Jan-18 22:14 39.485851 -121.624699 35 176ft 18kts
09-Jan-18 22:15 39.492673 -121.618989 27 176ft 32kts
09-Jan-18 22:16 39.494280 -121.616059 51 176ft 0kts
09-Jan-18 22:17 39.494280 -121.616059 51 176ft 0kts
09-Jan-18 22:18 39.494280 -121.616059 51 176ft 0kts
09-Jan-18 22:19 39.494280 -121.616059 51 176ft 0kts
09-Jan-18 22:20 39.494280 -121.616059 51 176ft 0kts
09-Jan-18 22:21 39.494280 -121.616059 51 176ft 0kts
09-Jan-18 22:22 39.494280 -121.616059 51 176ft 0kts
09-Jan-18 22:23 39.494280 -121.616059 51 176ft 0kts
09-Jan-18 22:24 39.494280 -121.616059 51 176ft 0kts
09-Jan-18 22:25 39.494280 -121.616059 51 176ft 0kts
09-Jan-18 22:26 39.494280 -121.616059 51 176ft 0kts
09-Jan-18 22:27 39.494280 -121.616059 51 176ft 0kts
09-Jan-18 22:28 39.494280 -121.616059 51 176ft 0kts

Navigation Log

Ident Type
Flight plan parsing failed, navigation log unavailable